Time;durP1;ratioP1;P1;durP2;ratioP2;P2;SDS_P1;SDS_P2;PMS_P1;PMS_P2;Temp;Humidity;BMP_temperature;BMP_pressure;BME280_temperature;BME280_humidity;BME280_pressure;Samples;Min_cycle;Max_cycle;Signal;HPM_P1;HPM_P2
2021/08/28 00:00:51;;;;;;;13.45;4.75;;;;;;;25.89;55.18;100670.09;5053781;28;20040;-72
2021/08/28 00:03:18;;;;;;;18.50;6.20;;;;;;;25.73;56.20;100666.41;5065311;28;20041;-72
2021/08/28 00:05:46;;;;;;;19.05;5.82;;;;;;;25.76;56.33;100664.41;5070915;28;20401;-72
2021/08/28 00:08:13;;;;;;;15.73;6.25;;;;;;;25.83;56.11;100673.09;5071729;28;20048;-73
2021/08/28 00:10:44;;;;;;;11.48;4.68;;;;;;;25.80;56.13;100662.41;5071689;28;20139;-73
2021/08/28 00:13:12;;;;;;;18.13;5.22;;;;;;;25.67;56.19;100667.53;5049004;28;20041;-73
2021/08/28 00:15:39;;;;;;;15.43;5.47;;;;;;;25.63;56.38;100675.88;5071623;28;20051;-73
2021/08/28 00:18:07;;;;;;;15.15;4.85;;;;;;;25.60;56.91;100667.94;5071850;28;20045;-73
2021/08/28 00:20:35;;;;;;;20.45;5.25;;;;;;;25.62;56.22;100680.41;5064043;28;20052;-73
2021/08/28 00:23:03;;;;;;;15.15;5.88;;;;;;;25.69;56.51;100675.59;5071617;28;20052;-73
2021/08/28 00:25:31;;;;;;;16.15;5.45;;;;;;;25.67;56.78;100674.78;5071733;28;20047;-73
2021/08/28 00:28:00;;;;;;;14.48;4.78;;;;;;;25.65;56.75;100680.28;5070985;28;20048;-73
2021/08/28 00:30:28;;;;;;;14.65;6.10;;;;;;;25.73;56.88;100672.66;5071386;28;20510;-73
2021/08/28 00:32:55;;;;;;;17.40;5.88;;;;;;;25.79;56.66;100672.38;5071030;28;20048;-72
2021/08/28 00:35:23;;;;;;;17.92;5.55;;;;;;;25.72;56.59;100678.16;5070741;28;20033;-73
2021/08/28 00:37:50;;;;;;;16.70;5.55;;;;;;;25.69;57.06;100675.59;5066629;28;20036;-73
2021/08/28 00:40:17;;;;;;;12.20;4.82;;;;;;;25.70;56.61;100674.66;5071123;28;20402;-73
2021/08/28 00:42:50;;;;;;;14.45;5.65;;;;;;;25.64;57.44;100675.81;5071118;28;20055;-73
2021/08/28 00:45:20;;;;;;;11.40;5.13;;;;;;;25.61;57.51;100677.78;5061453;28;20140;-72
2021/08/28 00:47:52;;;;;;;12.68;5.20;;;;;;;25.65;57.21;100676.69;5063193;28;20047;-72
2021/08/28 00:50:21;;;;;;;17.60;5.78;;;;;;;25.59;57.64;100677.88;5066293;28;20078;-72
2021/08/28 00:52:49;;;;;;;17.02;6.25;;;;;;;25.54;57.80;100679.84;5070468;28;20048;-73
2021/08/28 00:55:16;;;;;;;14.20;5.60;;;;;;;25.55;57.83;100683.44;5066350;28;20048;-72
2021/08/28 00:57:43;;;;;;;15.20;6.25;;;;;;;25.54;58.30;100674.44;5070198;28;20044;-74
2021/08/28 01:00:13;;;;;;;16.02;5.22;;;;;;;25.60;58.34;100684.16;5070656;28;20048;-73
2021/08/28 01:02:43;;;;;;;13.68;5.63;;;;;;;25.65;58.16;100684.81;5069692;28;20532;-74
2021/08/28 01:05:16;;;;;;;18.55;6.30;;;;;;;25.63;58.69;100690.28;5070803;28;20063;-73
2021/08/28 01:07:52;;;;;;;20.10;6.00;;;;;;;25.55;59.26;100676.22;5041211;28;20434;-73
2021/08/28 01:10:21;;;;;;;13.20;5.22;;;;;;;25.47;59.26;100675.69;5055097;28;20045;-72
2021/08/28 01:12:53;;;;;;;17.00;5.15;;;;;;;25.49;58.98;100671.09;5064331;28;20032;-73
2021/08/28 01:15:25;;;;;;;18.58;6.53;;;;;;;25.45;59.17;100663.22;5070683;28;20037;-73
2021/08/28 01:17:55;;;;;;;13.80;4.80;;;;;;;25.42;58.73;100662.41;5069699;28;20129;-73
2021/08/28 01:20:32;;;;;;;17.58;5.75;;;;;;;25.24;59.76;100665.97;5070124;28;20048;-73
2021/08/28 01:23:01;;;;;;;15.50;5.68;;;;;;;25.18;59.75;100660.84;5070278;28;20087;-73
2021/08/28 01:25:30;;;;;;;19.35;6.05;;;;;;;25.26;59.84;100660.50;5070040;28;20044;-74
2021/08/28 01:28:03;;;;;;;14.65;5.60;;;;;;;25.37;59.41;100659.03;5065694;28;20037;-73
2021/08/28 01:30:33;;;;;;;17.25;6.22;;;;;;;25.36;59.71;100661.81;5070005;28;20043;-73
2021/08/28 01:33:02;;;;;;;16.88;6.20;;;;;;;25.31;60.13;100659.34;5069668;28;20037;-73
2021/08/28 01:35:30;;;;;;;12.00;5.47;;;;;;;25.28;60.03;100659.47;5069820;28;20043;-73
2021/08/28 01:37:59;;;;;;;18.13;6.03;;;;;;;25.26;60.04;100647.88;5069815;28;20040;-73
2021/08/28 01:40:28;;;;;;;19.05;5.70;;;;;;;25.30;60.04;100654.00;5061246;28;20064;-73
2021/08/28 01:42:56;;;;;;;16.20;5.57;;;;;;;25.35;59.31;100660.06;5069947;28;20037;-73
2021/08/28 01:45:25;;;;;;;20.17;5.70;;;;;;;25.30;59.29;100662.09;5069347;28;20128;-72
2021/08/28 01:47:56;;;;;;;14.88;5.70;;;;;;;25.31;59.09;100651.22;5069806;28;20036;-73
2021/08/28 01:50:25;;;;;;;17.17;5.38;;;;;;;25.34;59.48;100652.88;5069417;28;20040;-74
2021/08/28 01:52:52;;;;;;;17.75;5.10;;;;;;;25.27;60.09;100652.31;5069512;28;20410;-73
2021/08/28 01:55:20;;;;;;;19.02;5.97;;;;;;;25.20;60.12;100647.28;5069878;28;20044;-73
2021/08/28 01:57:48;;;;;;;20.58;5.90;;;;;;;25.19;60.24;100646.41;5069495;28;20059;-72
2021/08/28 02:00:16;;;;;;;16.73;5.80;;;;;;;25.13;60.69;100656.63;5069823;28;20079;-73
2021/08/28 02:02:43;;;;;;;10.90;4.50;;;;;;;25.17;60.99;100647.41;5069242;28;20045;-74
2021/08/28 02:05:14;;;;;;;13.73;5.40;;;;;;;25.17;61.44;100647.41;5069473;28;20059;-73
2021/08/28 02:07:51;;;;;;;14.30;5.60;;;;;;;25.21;61.58;100647.19;5069247;28;20048;-73
2021/08/28 02:10:23;;;;;;;20.75;6.70;;;;;;;25.30;60.97;100649.47;5068458;28;20065;-72
2021/08/28 02:12:54;;;;;;;18.23;5.90;;;;;;;25.27;61.21;100641.50;5069537;28;20045;-73
2021/08/28 02:15:30;;;;;;;17.45;6.40;;;;;;;25.24;61.56;100643.47;5069194;28;20052;-73
2021/08/28 02:18:04;;;;;;;18.75;5.90;;;;;;;25.24;61.78;100644.34;5069846;28;20064;-73
2021/08/28 02:20:37;;;;;;;15.23;6.70;;;;;;;25.19;61.83;100635.59;5055305;28;20047;-73
2021/08/28 02:23:07;;;;;;;18.15;5.95;;;;;;;25.17;62.01;100631.19;5069418;28;20044;-73
2021/08/28 02:25:50;;;;;;;16.92;5.75;;;;;;;25.21;62.63;100628.25;5061680;28;20047;-73
2021/08/28 02:28:26;;;;;;;16.08;5.82;;;;;;;25.13;62.81;100630.47;5066300;28;20072;-71
2021/08/28 02:30:54;;;;;;;15.13;5.43;;;;;;;25.12;62.84;100628.72;5069569;28;20029;-73
2021/08/28 02:33:23;;;;;;;18.15;6.32;;;;;;;25.17;63.02;100623.97;5068287;28;20041;-73
2021/08/28 02:35:52;;;;;;;16.00;5.80;;;;;;;25.08;62.94;100624.38;5066213;28;20041;-73
2021/08/28 02:38:20;;;;;;;17.25;6.57;;;;;;;25.10;62.91;100630.59;5061048;28;20053;-73
2021/08/28 02:40:50;;;;;;;20.00;6.00;;;;;;;25.18;62.74;100628.44;5053432;28;20041;-73
2021/08/28 02:43:18;;;;;;;16.25;4.88;;;;;;;25.16;62.53;100619.50;5047212;28;20058;-71
2021/08/28 02:45:48;;;;;;;18.67;6.00;;;;;;;25.18;62.30;100617.63;5064995;28;20082;-73
2021/08/28 02:48:18;;;;;;;15.55;5.20;;;;;;;25.20;62.44;100613.03;5065335;28;20041;-73
2021/08/28 02:50:49;;;;;;;16.52;5.72;;;;;;;25.05;62.88;100613.72;5066772;28;20127;-73
2021/08/28 02:53:20;;;;;;;25.52;6.30;;;;;;;24.96;63.32;100606.91;5073011;28;20036;-73
2021/08/28 02:55:50;;;;;;;13.80;5.45;;;;;;;24.92;63.61;100612.56;5060634;28;20044;-72
2021/08/28 02:58:18;;;;;;;13.95;6.43;;;;;;;24.81;63.97;100604.03;5073127;28;20071;-71
2021/08/28 03:00:46;;;;;;;19.38;6.38;;;;;;;24.92;63.72;100613.44;5064953;28;20044;-73
2021/08/28 03:03:15;;;;;;;21.63;7.03;;;;;;;24.94;63.82;100610.66;5061044;28;20135;-73
2021/08/28 03:05:46;;;;;;;18.80;5.85;;;;;;;24.92;64.32;100596.34;5064009;28;20068;-73
2021/08/28 03:08:15;;;;;;;15.85;6.00;;;;;;;24.92;64.72;100597.22;5059505;28;20517;-73
2021/08/28 03:10:46;;;;;;;18.80;5.85;;;;;;;24.98;64.53;100593.34;5064954;28;20040;-74
2021/08/28 03:13:14;;;;;;;15.02;5.22;;;;;;;24.95;64.56;100602.47;5062889;28;20056;-72
2021/08/28 03:15:44;;;;;;;12.55;5.63;;;;;;;24.87;65.01;100601.06;5060211;28;20091;-72
2021/08/28 03:18:12;;;;;;;17.73;6.10;;;;;;;24.88;64.79;100602.78;5071961;28;20102;-73
2021/08/28 03:20:42;;;;;;;17.50;5.97;;;;;;;24.87;65.18;100604.63;5068109;28;20052;-73
2021/08/28 03:23:10;;;;;;;15.13;6.57;;;;;;;24.90;65.28;100601.81;5071856;28;20052;-73
2021/08/28 03:25:39;;;;;;;19.77;6.22;;;;;;;24.91;65.40;100605.38;5072620;28;20047;-74
2021/08/28 03:28:08;;;;;;;15.13;6.85;;;;;;;24.86;65.85;100607.41;5072637;28;20146;-73
2021/08/28 03:30:35;;;;;;;19.20;6.68;;;;;;;24.68;66.30;100606.38;5071292;28;20040;-74
2021/08/28 03:33:04;;;;;;;17.40;6.18;;;;;;;24.62;67.00;100618.34;5072896;28;20032;-73
2021/08/28 03:35:31;;;;;;;21.77;6.60;;;;;;;24.54;67.11;100604.34;5072163;28;20056;-73
2021/08/28 03:37:59;;;;;;;19.58;6.28;;;;;;;24.61;67.02;100608.47;5072131;28;20111;-73
2021/08/28 03:40:26;;;;;;;18.33;6.90;;;;;;;24.71;66.80;100605.38;5071818;28;20044;-73
2021/08/28 03:42:54;;;;;;;16.10;6.18;;;;;;;24.75;66.74;100607.88;5072351;28;20436;-73
2021/08/28 03:45:29;;;;;;;15.50;6.03;;;;;;;24.83;66.80;100605.69;5071369;28;20501;-73
2021/08/28 03:47:57;;;;;;;20.15;6.70;;;;;;;24.80;66.85;100605.84;5072536;28;20047;-73
2021/08/28 03:50:24;;;;;;;17.38;7.47;;;;;;;24.77;67.30;100611.38;5072327;28;20045;-73
2021/08/28 03:52:52;;;;;;;21.67;5.93;;;;;;;24.78;67.50;100618.53;5071838;28;20455;-73
2021/08/28 03:55:19;;;;;;;20.35;6.57;;;;;;;24.77;67.47;100610.50;5072367;28;20052;-72
2021/08/28 03:57:47;;;;;;;21.85;6.72;;;;;;;24.75;67.46;100615.97;5071882;28;20470;-71
2021/08/28 04:00:15;;;;;;;23.98;6.85;;;;;;;24.82;66.89;100622.84;5072855;28;20052;-73
2021/08/28 04:02:43;;;;;;;24.67;7.55;;;;;;;24.89;66.42;100628.84;5071398;28;20040;-74
2021/08/28 04:05:11;;;;;;;21.58;5.95;;;;;;;24.91;66.76;100618.88;5071772;28;20044;-72
2021/08/28 04:07:39;;;;;;;21.55;6.13;;;;;;;24.94;66.35;100611.50;5056451;28;20056;-74
2021/08/28 04:10:08;;;;;;;18.08;6.13;;;;;;;25.00;65.86;100615.78;5071206;28;20494;-73
2021/08/28 04:12:35;;;;;;;20.20;6.15;;;;;;;25.03;66.07;100618.31;5066114;28;20043;-73
2021/08/28 04:15:04;;;;;;;18.75;5.90;;;;;;;25.02;65.97;100620.16;5044127;28;20036;-73
2021/08/28 04:17:33;;;;;;;19.30;5.53;;;;;;;25.05;66.03;100618.25;5062982;28;20047;-73
2021/08/28 04:20:02;;;;;;;17.75;6.20;;;;;;;25.17;65.86;100618.56;5062925;28;20032;-73
2021/08/28 04:22:29;;;;;;;16.30;5.57;;;;;;;25.22;65.85;100623.75;5067825;28;20045;-74
2021/08/28 04:24:57;;;;;;;17.08;5.57;;;;;;;25.26;66.09;100637.06;5063435;28;20405;-73
2021/08/28 04:27:24;;;;;;;16.23;6.32;;;;;;;25.35;66.36;100628.50;5069721;28;20118;-73
2021/08/28 04:29:52;;;;;;;21.58;6.13;;;;;;;25.46;66.22;100621.72;5069938;28;20044;-73
2021/08/28 04:32:19;;;;;;;10.82;4.85;;;;;;;25.57;66.52;100624.78;5068755;28;20036;-72
2021/08/28 04:34:47;;;;;;;20.60;5.43;;;;;;;25.70;66.32;100618.72;5068889;28;20032;-70
2021/08/28 04:37:16;;;;;;;21.80;6.07;;;;;;;25.85;66.48;100618.94;5069697;28;20044;-73
2021/08/28 04:39:43;;;;;;;15.80;4.88;;;;;;;25.96;66.66;100620.13;5069283;28;20128;-74
2021/08/28 04:42:11;;;;;;;17.67;6.32;;;;;;;26.08;66.62;100619.50;5069515;28;20052;-73
2021/08/28 04:44:38;;;;;;;15.27;5.70;;;;;;;26.23;66.72;100625.09;5069164;28;20040;-73
2021/08/28 04:47:05;;;;;;;18.92;5.45;;;;;;;26.32;66.51;100633.63;5062875;28;20816;-73
2021/08/28 04:49:33;;;;;;;19.30;5.05;;;;;;;26.43;66.52;100635.81;5068893;28;20036;-73
2021/08/28 04:52:00;;;;;;;22.63;5.07;;;;;;;26.59;66.51;100626.78;5066485;28;20044;-73
2021/08/28 04:54:29;;;;;;;11.88;5.57;;;;;;;26.77;65.96;100624.97;5069204;28;20383;-73
2021/08/28 04:56:56;;;;;;;16.25;5.47;;;;;;;26.85;65.99;100621.81;5068871;28;20044;-73
2021/08/28 04:59:24;;;;;;;22.40;4.70;;;;;;;27.03;65.33;100620.88;5064907;28;20513;-73
2021/08/28 05:01:52;;;;;;;13.70;5.55;;;;;;;27.23;65.02;100634.22;5069290;28;20048;-74
2021/08/28 05:04:19;;;;;;;16.45;5.53;;;;;;;27.43;64.26;100624.09;5069652;28;20041;-72
2021/08/28 05:06:46;;;;;;;19.33;5.43;;;;;;;27.62;63.67;100625.69;5070613;28;20063;-73
2021/08/28 05:09:14;;;;;;;13.55;4.47;;;;;;;27.81;63.86;100624.63;5070150;28;20074;-73
2021/08/28 05:11:43;;;;;;;21.00;4.85;;;;;;;27.98;63.54;100616.38;5070243;28;20481;-73
2021/08/28 05:14:10;;;;;;;16.00;5.47;;;;;;;28.10;63.09;100629.22;5068877;28;20049;-73
2021/08/28 05:16:38;;;;;;;16.92;5.35;;;;;;;28.30;62.36;100622.63;5069341;28;20044;-74
2021/08/28 05:19:05;;;;;;;19.08;5.32;;;;;;;28.49;62.44;100628.69;5069466;28;20059;-73
2021/08/28 05:21:33;;;;;;;15.65;5.03;;;;;;;28.70;61.51;100623.78;5070339;28;20048;-74
2021/08/28 05:24:00;;;;;;;16.98;5.05;;;;;;;28.87;60.83;100624.53;5069522;28;20036;-73
2021/08/28 05:26:27;;;;;;;16.58;5.53;;;;;;;29.05;60.27;100627.06;5068720;28;20040;-74
2021/08/28 05:28:56;;;;;;;14.20;4.40;;;;;;;29.26;59.88;100632.03;5062149;28;20040;-73
2021/08/28 05:31:23;;;;;;;15.43;4.68;;;;;;;29.45;59.63;100623.59;5069838;28;20045;-74
2021/08/28 05:33:51;;;;;;;19.48;4.97;;;;;;;29.66;59.02;100630.34;5050102;28;20045;-73
2021/08/28 05:36:19;;;;;;;14.95;4.55;;;;;;;29.86;58.40;100625.44;5048975;28;20045;-72
2021/08/28 05:38:46;;;;;;;18.25;4.90;;;;;;;30.07;57.74;100624.88;5049884;28;20040;-73
2021/08/28 05:41:14;;;;;;;19.55;4.78;;;;;;;30.32;57.03;100624.09;5050350;28;20053;-73
2021/08/28 05:43:42;;;;;;;13.73;4.22;;;;;;;30.56;56.43;100624.28;5055386;28;20048;-73
2021/08/28 05:46:11;;;;;;;21.13;4.57;;;;;;;30.81;55.31;100616.13;5063836;28;20040;-73
2021/08/28 05:48:38;;;;;;;18.67;4.57;;;;;;;31.01;54.87;100622.00;5069096;28;20063;-73
2021/08/28 05:51:06;;;;;;;19.95;4.78;;;;;;;31.18;54.12;100621.69;5059538;28;20071;-72
2021/08/28 05:53:33;;;;;;;18.48;5.00;;;;;;;31.32;53.65;100617.97;5068327;28;20494;-73
2021/08/28 05:56:01;;;;;;;19.67;4.38;;;;;;;31.49;53.16;100623.94;5069049;28;20048;-72
2021/08/28 05:58:28;;;;;;;18.48;4.13;;;;;;;31.71;51.74;100623.22;5068584;28;20059;-72
2021/08/28 06:00:55;;;;;;;19.63;3.88;;;;;;;31.88;51.72;100625.59;5069472;28;20035;-72
2021/08/28 06:03:24;;;;;;;16.17;3.90;;;;;;;32.10;51.14;100633.00;5068389;28;20053;-71
2021/08/28 06:05:51;;;;;;;17.55;4.20;;;;;;;32.25;50.07;100629.16;5069424;28;20044;-72
2021/08/28 06:08:19;;;;;;;21.67;4.18;;;;;;;32.33;48.64;100623.97;5069236;28;20081;-71
2021/08/28 06:10:46;;;;;;;14.43;3.90;;;;;;;32.42;48.73;100623.28;5070278;28;20084;-72
2021/08/28 06:13:14;;;;;;;18.38;4.22;;;;;;;32.63;48.01;100628.03;5068057;28;20063;-72
2021/08/28 06:15:41;;;;;;;13.60;4.25;;;;;;;32.79;46.92;100624.00;5069621;28;20037;-72
2021/08/28 06:18:09;;;;;;;16.85;4.70;;;;;;;32.96;45.93;100624.50;5067920;28;20041;-72
2021/08/28 06:20:38;;;;;;;17.90;3.83;;;;;;;33.12;44.89;100628.66;5067424;28;20385;-73
2021/08/28 06:23:05;;;;;;;21.90;4.32;;;;;;;33.04;45.11;100622.91;5064852;28;20036;-72
2021/08/28 06:25:33;;;;;;;19.70;4.30;;;;;;;33.05;44.26;100627.41;5064548;28;20509;-73
2021/08/28 06:28:00;;;;;;;20.83;4.18;;;;;;;33.10;44.24;100627.91;5070607;28;20047;-73
2021/08/28 06:30:28;;;;;;;18.42;4.47;;;;;;;33.29;43.17;100627.31;5072115;28;20116;-71
2021/08/28 06:32:55;;;;;;;20.55;4.20;;;;;;;33.29;43.03;100627.31;5071577;28;20040;-73
2021/08/28 06:35:22;;;;;;;14.88;3.78;;;;;;;33.34;42.97;100635.16;5071731;28;20044;-71
2021/08/28 06:37:51;;;;;;;17.27;3.80;;;;;;;33.38;42.27;100636.66;5073019;28;20040;-71
2021/08/28 06:40:19;;;;;;;18.15;4.25;;;;;;;33.47;41.97;100635.91;5072331;28;20047;-72
2021/08/28 06:42:46;;;;;;;24.17;3.85;;;;;;;33.58;42.11;100630.41;5072939;28;20047;-72
2021/08/28 06:45:14;;;;;;;14.32;3.78;;;;;;;33.82;41.73;100630.25;5071550;28;20060;-72
2021/08/28 06:47:42;;;;;;;16.63;5.10;;;;;;;33.83;40.49;100632.88;5071234;28;20067;-73
2021/08/28 06:50:10;;;;;;;17.23;4.65;;;;;;;33.80;39.84;100638.63;5072887;28;20033;-73
2021/08/28 06:52:37;;;;;;;18.33;3.88;;;;;;;33.79;39.36;100633.28;5072575;28;20041;-72
2021/08/28 06:55:08;;;;;;;19.45;4.25;;;;;;;33.92;39.00;100633.97;5071801;28;20045;-71
2021/08/28 06:57:35;;;;;;;17.02;3.10;;;;;;;34.00;38.95;100634.22;5072147;28;20098;-72
2021/08/28 07:00:03;;;;;;;17.80;4.32;;;;;;;33.99;38.57;100640.69;5072287;28;20033;-74
2021/08/28 07:02:31;;;;;;;20.15;4.10;;;;;;;33.89;38.09;100637.84;5071474;28;20429;-74
2021/08/28 07:04:58;;;;;;;15.13;3.72;;;;;;;34.01;38.57;100639.53;5071873;28;20414;-73
2021/08/28 07:07:25;;;;;;;16.98;4.30;;;;;;;34.16;37.54;100636.50;5070945;28;20659;-73
2021/08/28 07:09:53;;;;;;;16.48;4.20;;;;;;;34.24;37.26;100634.91;5072186;28;20433;-73
2021/08/28 07:12:22;;;;;;;20.75;3.55;;;;;;;34.28;37.18;100636.38;5072068;28;20044;-72
2021/08/28 07:14:49;;;;;;;14.55;2.97;;;;;;;34.37;37.37;100637.47;5071143;28;20048;-72
2021/08/28 07:17:16;;;;;;;16.33;4.45;;;;;;;34.44;37.85;100637.81;5063509;28;20051;-73
2021/08/28 07:19:44;;;;;;;16.33;4.25;;;;;;;34.29;37.28;100645.47;5072269;28;20045;-73
2021/08/28 07:22:11;;;;;;;21.30;3.92;;;;;;;34.34;36.98;100638.59;5071790;28;20047;-73
2021/08/28 07:24:38;;;;;;;12.95;3.67;;;;;;;34.33;37.22;100644.22;5072598;28;20056;-73
2021/08/28 07:27:06;;;;;;;19.38;3.70;;;;;;;34.36;37.67;100636.59;5071202;28;20040;-73
2021/08/28 07:29:35;;;;;;;24.88;4.72;;;;;;;34.44;37.48;100638.69;5071910;28;20401;-74
2021/08/28 07:32:03;;;;;;;21.40;3.90;;;;;;;34.65;37.18;100641.44;5071963;28;20040;-73
2021/08/28 07:34:35;;;;;;;19.08;4.75;;;;;;;34.83;35.85;100639.84;5072384;28;20044;-74
2021/08/28 07:37:03;;;;;;;19.73;4.15;;;;;;;34.98;36.06;100640.38;5069988;28;20044;-73
2021/08/28 07:39:30;;;;;;;18.05;4.03;;;;;;;35.05;35.74;100642.44;5071719;28;20045;-73
2021/08/28 07:41:57;;;;;;;19.30;3.72;;;;;;;35.16;35.45;100644.25;5072194;28;20064;-73
2021/08/28 07:44:25;;;;;;;16.02;3.92;;;;;;;35.15;34.75;100639.75;5071299;28;20056;-72
2021/08/28 07:46:54;;;;;;;19.63;4.20;;;;;;;35.47;34.34;100640.50;5051939;28;20506;-73
2021/08/28 07:49:22;;;;;;;18.15;4.35;;;;;;;35.81;34.33;100649.31;5050461;28;20152;-71
2021/08/28 07:51:49;;;;;;;20.73;5.28;;;;;;;36.19;34.07;100648.53;5051862;28;20037;-71
2021/08/28 07:54:16;;;;;;;16.92;3.80;;;;;;;36.37;33.85;100650.56;5043870;28;20045;-73
2021/08/28 07:56:44;;;;;;;22.75;4.25;;;;;;;36.21;34.20;100657.53;5051479;28;20040;-72
2021/08/28 07:59:11;;;;;;;18.45;3.70;;;;;;;36.11;34.38;100652.97;5050168;28;20053;-73
2021/08/28 08:01:38;;;;;;;18.48;4.28;;;;;;;35.82;34.85;100659.31;5051445;28;20498;-72
2021/08/28 08:04:07;;;;;;;15.75;4.35;;;;;;;35.64;35.05;100652.72;5051198;28;20041;-74
2021/08/28 08:06:34;;;;;;;16.20;3.35;;;;;;;35.46;35.75;100651.63;5051963;28;20048;-72
2021/08/28 08:09:02;;;;;;;19.70;3.60;;;;;;;35.52;35.93;100645.56;5050320;28;20044;-73
2021/08/28 08:11:29;;;;;;;19.20;4.28;;;;;;;35.52;35.97;100648.31;5051272;28;20649;-74
2021/08/28 08:13:56;;;;;;;27.55;5.20;;;;;;;35.90;35.90;100650.38;5050782;28;20037;-73
2021/08/28 08:16:24;;;;;;;15.23;3.50;;;;;;;36.04;36.57;100641.69;5051528;28;20045;-71
2021/08/28 08:18:52;;;;;;;18.35;4.07;;;;;;;36.02;36.42;100646.47;5049886;28;20050;-72
2021/08/28 08:21:21;;;;;;;14.05;3.35;;;;;;;36.29;36.09;100643.06;5051168;28;20527;-72
2021/08/28 08:23:49;;;;;;;17.50;4.38;;;;;;;36.25;35.34;100649.84;5050340;28;20041;-70
2021/08/28 08:26:16;;;;;;;19.50;4.82;;;;;;;36.09;35.21;100647.63;5042297;28;20044;-73
2021/08/28 08:28:45;;;;;;;19.63;4.07;;;;;;;36.08;34.79;100647.78;5050768;28;20495;-74
2021/08/28 08:31:12;;;;;;;31.50;5.80;;;;;;;35.95;34.27;100639.81;5050479;28;20489;-73
2021/08/28 08:33:40;;;;;;;25.15;4.72;;;;;;;35.79;34.64;100636.72;5050264;28;20505;-72
2021/08/28 08:36:07;;;;;;;13.55;3.47;;;;;;;36.12;34.29;100639.09;5051092;28;20037;-72
2021/08/28 08:38:36;;;;;;;20.88;4.68;;;;;;;36.32;34.19;100631.75;5049484;28;20043;-73
2021/08/28 08:41:03;;;;;;;16.73;4.38;;;;;;;36.52;34.22;100641.72;5050187;28;20029;-73
2021/08/28 08:43:32;;;;;;;21.35;4.25;;;;;;;36.24;35.00;100635.22;5050449;28;20045;-73
2021/08/28 08:46:00;;;;;;;14.43;3.38;;;;;;;36.19;35.27;100634.78;5049977;28;20037;-73
2021/08/28 08:48:28;;;;;;;17.45;4.00;;;;;;;36.28;35.28;100627.56;5049875;28;20045;-72
2021/08/28 08:50:56;;;;;;;18.55;3.47;;;;;;;36.17;35.37;100628.56;5049932;28;20048;-73
2021/08/28 08:53:29;;;;;;;14.07;3.70;;;;;;;36.22;35.15;100629.00;5049595;28;20415;-72
2021/08/28 08:56:00;;;;;;;16.25;3.75;;;;;;;36.37;35.03;100632.19;5050485;28;20037;-72
2021/08/28 08:58:27;;;;;;;19.92;3.70;;;;;;;36.49;34.42;100628.28;5050210;28;20048;-72
2021/08/28 09:00:54;;;;;;;24.45;4.53;;;;;;;36.79;34.03;100630.00;5049408;28;20045;-72
2021/08/28 09:03:22;;;;;;;17.08;3.22;;;;;;;36.58;33.66;100626.53;5049828;28;20498;-72
2021/08/28 09:05:50;;;;;;;19.42;4.88;;;;;;;36.58;34.30;100626.53;5050920;28;20063;-72
2021/08/28 09:08:18;;;;;;;24.75;4.60;;;;;;;36.69;33.86;100634.66;5049557;28;20111;-71
2021/08/28 09:10:45;;;;;;;14.27;3.28;;;;;;;36.59;34.07;100634.63;5050108;28;20383;-72
2021/08/28 09:13:16;;;;;;;16.73;4.45;;;;;;;36.15;34.33;100626.94;5049581;28;20045;-72
2021/08/28 09:15:46;;;;;;;18.90;3.50;;;;;;;36.22;34.02;100629.00;5050195;28;20422;-72
2021/08/28 09:18:13;;;;;;;17.10;4.10;;;;;;;35.97;34.43;100632.28;5049915;28;20068;-72
2021/08/28 09:20:41;;;;;;;19.02;4.20;;;;;;;35.82;34.74;100629.06;5049583;28;20060;-72
2021/08/28 09:23:10;;;;;;;14.25;3.45;;;;;;;36.05;34.55;100632.41;5047548;28;20063;-72
2021/08/28 09:25:39;;;;;;;19.30;3.97;;;;;;;36.07;34.40;100640.53;5030386;28;20052;-72
2021/08/28 09:28:07;;;;;;;18.92;4.18;;;;;;;36.03;34.89;100642.72;5029882;28;20046;-72
2021/08/28 09:30:39;;;;;;;21.63;3.90;;;;;;;35.74;35.60;100631.66;5029637;28;20048;-72
2021/08/28 09:33:08;;;;;;;18.98;4.05;;;;;;;35.84;35.61;100642.69;5029148;28;20553;-72
2021/08/28 09:35:38;;;;;;;22.70;4.22;;;;;;;35.85;35.86;100644.38;5029666;28;20415;-72
2021/08/28 09:38:08;;;;;;;17.80;4.18;;;;;;;35.97;35.66;100643.28;5030114;28;20037;-72
2021/08/28 09:40:37;;;;;;;19.15;3.95;;;;;;;35.58;36.52;100641.41;5029359;28;20478;-72
2021/08/28 09:43:07;;;;;;;21.83;4.25;;;;;;;35.28;36.75;100636.81;5028462;28;20038;-72
2021/08/28 09:45:37;;;;;;;19.45;4.30;;;;;;;35.41;36.53;100632.81;5021249;28;20131;-73
2021/08/28 09:48:08;;;;;;;18.95;4.03;;;;;;;35.14;37.32;100629.75;5049646;28;20041;-72
2021/08/28 09:50:38;;;;;;;19.05;4.80;;;;;;;34.92;37.86;100629.94;5048578;28;20045;-71
2021/08/28 09:53:09;;;;;;;16.63;4.10;;;;;;;35.23;37.94;100626.25;5048812;28;20041;-72
2021/08/28 09:55:37;;;;;;;21.92;4.65;;;;;;;35.48;37.39;100634.00;5049213;28;20072;-72
2021/08/28 09:58:06;;;;;;;16.10;3.97;;;;;;;35.31;37.41;100629.19;5049395;28;20044;-72
2021/08/28 10:00:35;;;;;;;19.27;4.10;;;;;;;34.97;38.39;100630.41;5048247;28;20052;-73
2021/08/28 10:03:06;;;;;;;14.40;4.18;;;;;;;34.90;38.54;100626.47;5048965;28;20460;-72
2021/08/28 10:05:35;;;;;;;17.48;4.60;;;;;;;34.99;38.09;100625.63;5048704;28;20048;-73
2021/08/28 10:08:05;;;;;;;17.05;3.83;;;;;;;34.97;38.03;100624.91;5049044;28;20433;-72
2021/08/28 10:10:34;;;;;;;13.15;4.22;;;;;;;34.79;38.03;100627.38;5063174;28;20048;-73
2021/08/28 10:13:02;;;;;;;19.05;4.15;;;;;;;34.65;38.27;100627.72;5068957;28;20048;-72
2021/08/28 10:15:32;;;;;;;18.95;3.53;;;;;;;34.59;38.63;100622.78;5068192;28;20048;-73
2021/08/28 10:18:01;;;;;;;21.27;4.40;;;;;;;34.65;38.74;100623.09;5069357;28;20036;-72
2021/08/28 10:20:31;;;;;;;21.45;4.00;;;;;;;34.64;38.45;100620.50;5069032;28;20040;-72
2021/08/28 10:23:02;;;;;;;21.95;4.57;;;;;;;34.67;38.40;100617.47;5069068;28;20046;-72
2021/08/28 10:25:32;;;;;;;16.58;3.55;;;;;;;34.75;37.59;100613.09;5068193;28;20053;-72
2021/08/28 10:28:01;;;;;;;17.10;3.67;;;;;;;34.61;37.88;100616.13;5069629;28;20056;-72
2021/08/28 10:30:29;;;;;;;21.20;4.32;;;;;;;34.50;37.52;100613.47;5068896;28;20048;-72
2021/08/28 10:32:56;;;;;;;17.45;3.75;;;;;;;34.42;37.22;100618.72;5068452;28;20044;-72
2021/08/28 10:35:24;;;;;;;17.08;3.85;;;;;;;34.61;36.85;100620.75;5069006;28;20043;-71
2021/08/28 10:37:53;;;;;;;19.65;4.70;;;;;;;34.79;36.90;100614.53;5068009;28;20048;-73
2021/08/28 10:40:23;;;;;;;17.95;4.03;;;;;;;34.94;36.69;100614.19;5069088;28;20055;-72
2021/08/28 10:42:52;;;;;;;19.63;4.13;;;;;;;35.04;36.59;100610.53;5063152;28;20044;-70
2021/08/28 10:45:26;;;;;;;20.02;4.45;;;;;;;35.01;36.21;100613.53;5068575;28;20045;-69
2021/08/28 10:47:58;;;;;;;13.43;4.35;;;;;;;34.94;36.78;100612.31;5066415;28;20040;-71
2021/08/28 10:50:26;;;;;;;17.10;3.78;;;;;;;34.89;37.21;100608.25;5068449;28;20049;-71
2021/08/28 10:52:59;;;;;;;17.08;4.22;;;;;;;34.99;36.99;100609.16;5062691;28;20048;-72
2021/08/28 10:55:36;;;;;;;16.25;3.88;;;;;;;35.10;36.59;100606.34;5067161;28;20520;-73
2021/08/28 10:58:14;;;;;;;18.27;4.03;;;;;;;35.07;36.39;100612.09;5044846;28;20041;-72
2021/08/28 11:00:43;;;;;;;14.60;4.57;;;;;;;35.29;36.23;100603.72;5049635;28;20062;-72
2021/08/28 11:03:27;;;;;;;18.48;3.60;;;;;;;35.39;36.75;100610.09;5067949;28;20440;-72
2021/08/28 11:06:26;;;;;;;12.68;3.45;;;;;;;35.47;37.30;100604.78;5051798;28;20043;-70
2021/08/28 11:08:56;;;;;;;15.80;3.88;;;;;;;35.55;37.42;100615.09;5066450;28;20036;-70
2021/08/28 11:11:26;;;;;;;20.13;4.18;;;;;;;35.47;37.70;100606.66;5068333;28;20124;-69
2021/08/28 11:14:00;;;;;;;20.42;4.97;;;;;;;35.65;37.24;100598.59;5070845;28;20424;-70
2021/08/28 11:16:46;;;;;;;;;;;;;;;35.54;37.00;100597.72;5071827;28;20037;-69
2021/08/28 11:19:14;;;;;;;16.85;4.15;;;;;;;35.82;36.85;100601.59;5072310;28;20347;-71
2021/08/28 11:21:43;;;;;;;21.58;3.92;;;;;;;36.08;36.46;100601.91;5072423;28;20064;-70
2021/08/28 11:24:13;;;;;;;20.00;4.72;;;;;;;36.19;36.92;100598.16;5072672;28;20060;-71